sensor_id;sensor_type;location;lat;lon;timestamp;P1;durP1;ratioP1;P2;durP2;ratioP2
16577;SDS011;8401;52.528;13.340;2023-06-22T00:01:28;12.85;;;11.43;;
16577;SDS011;8401;52.528;13.340;2023-06-22T00:03:53;11.50;;;10.40;;
16577;SDS011;8401;52.528;13.340;2023-06-22T00:06:19;11.05;;;9.93;;
16577;SDS011;8401;52.528;13.340;2023-06-22T00:08:45;13.05;;;10.52;;
16577;SDS011;8401;52.528;13.340;2023-06-22T00:11:10;13.90;;;9.93;;
16577;SDS011;8401;52.528;13.340;2023-06-22T00:13:37;13.45;;;11.15;;
16577;SDS011;8401;52.528;13.340;2023-06-22T00:16:03;11.98;;;10.88;;
16577;SDS011;8401;52.528;13.340;2023-06-22T00:18:29;19.50;;;10.30;;
16577;SDS011;8401;52.528;13.340;2023-06-22T00:20:55;11.80;;;10.60;;
16577;SDS011;8401;52.528;13.340;2023-06-22T00:23:22;13.13;;;11.00;;
16577;SDS011;8401;52.528;13.340;2023-06-22T00:25:48;11.27;;;10.18;;
16577;SDS011;8401;52.528;13.340;2023-06-22T00:28:14;10.85;;;9.75;;
16577;SDS011;8401;52.528;13.340;2023-06-22T00:30:40;11.82;;;10.63;;
16577;SDS011;8401;52.528;13.340;2023-06-22T00:33:05;12.52;;;10.85;;
16577;SDS011;8401;52.528;13.340;2023-06-22T00:35:32;10.98;;;9.90;;
16577;SDS011;8401;52.528;13.340;2023-06-22T00:37:59;11.35;;;10.15;;
16577;SDS011;8401;52.528;13.340;2023-06-22T00:40:29;12.10;;;10.50;;
16577;SDS011;8401;52.528;13.340;2023-06-22T00:42:55;10.93;;;9.93;;
16577;SDS011;8401;52.528;13.340;2023-06-22T00:45:22;11.55;;;9.70;;
16577;SDS011;8401;52.528;13.340;2023-06-22T00:47:56;11.18;;;9.85;;
16577;SDS011;8401;52.528;13.340;2023-06-22T00:50:23;12.85;;;10.00;;
16577;SDS011;8401;52.528;13.340;2023-06-22T00:52:51;11.43;;;9.82;;
16577;SDS011;8401;52.528;13.340;2023-06-22T00:55:19;13.00;;;10.27;;
16577;SDS011;8401;52.528;13.340;2023-06-22T00:57:46;11.43;;;9.80;;
16577;SDS011;8401;52.528;13.340;2023-06-22T01:00:13;11.68;;;9.63;;
16577;SDS011;8401;52.528;13.340;2023-06-22T01:02:42;11.10;;;10.00;;
16577;SDS011;8401;52.528;13.340;2023-06-22T01:05:10;10.75;;;9.65;;
16577;SDS011;8401;52.528;13.340;2023-06-22T01:08:01;12.23;;;9.38;;
16577;SDS011;8401;52.528;13.340;2023-06-22T01:13:45;11.77;;;9.93;;
16577;SDS011;8401;52.528;13.340;2023-06-22T01:16:18;11.55;;;10.40;;
16577;SDS011;8401;52.528;13.340;2023-06-22T01:18:49;11.27;;;9.95;;
16577;SDS011;8401;52.528;13.340;2023-06-22T01:21:18;11.07;;;9.95;;
16577;SDS011;8401;52.528;13.340;2023-06-22T01:29:20;14.02;;;10.50;;
16577;SDS011;8401;52.528;13.340;2023-06-22T01:31:47;10.75;;;9.65;;
16577;SDS011;8401;52.528;13.340;2023-06-22T01:34:14;11.25;;;9.63;;
16577;SDS011;8401;52.528;13.340;2023-06-22T01:36:41;13.02;;;9.77;;
16577;SDS011;8401;52.528;13.340;2023-06-22T01:39:08;14.05;;;10.68;;
16577;SDS011;8401;52.528;13.340;2023-06-22T01:41:36;12.52;;;10.13;;
16577;SDS011;8401;52.528;13.340;2023-06-22T01:44:04;11.55;;;9.73;;
16577;SDS011;8401;52.528;13.340;2023-06-22T01:46:34;11.95;;;10.13;;
16577;SDS011;8401;52.528;13.340;2023-06-22T01:49:04;11.48;;;10.38;;
16577;SDS011;8401;52.528;13.340;2023-06-22T01:51:31;13.55;;;10.02;;
16577;SDS011;8401;52.528;13.340;2023-06-22T01:53:57;12.25;;;10.38;;
16577;SDS011;8401;52.528;13.340;2023-06-22T01:56:22;11.07;;;9.88;;
16577;SDS011;8401;52.528;13.340;2023-06-22T01:58:55;12.00;;;10.77;;
16577;SDS011;8401;52.528;13.340;2023-06-22T02:01:49;12.57;;;10.10;;
16577;SDS011;8401;52.528;13.340;2023-06-22T02:04:23;11.38;;;10.18;;
16577;SDS011;8401;52.528;13.340;2023-06-22T02:06:54;12.32;;;11.02;;
16577;SDS011;8401;52.528;13.340;2023-06-22T02:09:22;11.40;;;10.30;;
16577;SDS011;8401;52.528;13.340;2023-06-22T02:11:50;11.85;;;10.65;;
16577;SDS011;8401;52.528;13.340;2023-06-22T02:14:20;12.85;;;11.52;;
16577;SDS011;8401;52.528;13.340;2023-06-22T02:16:46;12.75;;;11.32;;
16577;SDS011;8401;52.528;13.340;2023-06-22T02:19:12;13.52;;;11.38;;
16577;SDS011;8401;52.528;13.340;2023-06-22T02:21:41;15.18;;;12.40;;
16577;SDS011;8401;52.528;13.340;2023-06-22T02:24:07;14.50;;;11.80;;
16577;SDS011;8401;52.528;13.340;2023-06-22T02:26:32;14.82;;;12.77;;
16577;SDS011;8401;52.528;13.340;2023-06-22T02:28:59;13.38;;;11.98;;
16577;SDS011;8401;52.528;13.340;2023-06-22T02:31:25;15.27;;;12.75;;
16577;SDS011;8401;52.528;13.340;2023-06-22T02:33:55;15.88;;;13.43;;
16577;SDS011;8401;52.528;13.340;2023-06-22T02:36:24;13.98;;;12.52;;
16577;SDS011;8401;52.528;13.340;2023-06-22T02:38:51;14.75;;;13.25;;
16577;SDS011;8401;52.528;13.340;2023-06-22T02:41:18;15.13;;;13.52;;
16577;SDS011;8401;52.528;13.340;2023-06-22T02:43:47;16.52;;;13.80;;
16577;SDS011;8401;52.528;13.340;2023-06-22T02:46:13;15.77;;;13.25;;
16577;SDS011;8401;52.528;13.340;2023-06-22T02:48:39;14.43;;;12.93;;
16577;SDS011;8401;52.528;13.340;2023-06-22T02:51:05;15.60;;;13.95;;
16577;SDS011;8401;52.528;13.340;2023-06-22T02:53:31;14.93;;;13.35;;
16577;SDS011;8401;52.528;13.340;2023-06-22T02:55:57;14.73;;;13.23;;
16577;SDS011;8401;52.528;13.340;2023-06-22T02:58:23;16.13;;;13.45;;
16577;SDS011;8401;52.528;13.340;2023-06-22T03:00:49;15.32;;;13.73;;
16577;SDS011;8401;52.528;13.340;2023-06-22T03:03:18;16.00;;;13.88;;
16577;SDS011;8401;52.528;13.340;2023-06-22T03:05:44;15.13;;;13.60;;
16577;SDS011;8401;52.528;13.340;2023-06-22T03:08:09;17.92;;;14.23;;
16577;SDS011;8401;52.528;13.340;2023-06-22T03:10:35;15.30;;;13.75;;
16577;SDS011;8401;52.528;13.340;2023-06-22T03:13:01;16.42;;;14.68;;
16577;SDS011;8401;52.528;13.340;2023-06-22T03:15:26;16.10;;;13.60;;
16577;SDS011;8401;52.528;13.340;2023-06-22T03:17:54;16.83;;;13.80;;
16577;SDS011;8401;52.528;13.340;2023-06-22T03:20:20;14.95;;;13.43;;
16577;SDS011;8401;52.528;13.340;2023-06-22T03:22:46;14.85;;;13.32;;
16577;SDS011;8401;52.528;13.340;2023-06-22T03:25:13;15.20;;;13.18;;
16577;SDS011;8401;52.528;13.340;2023-06-22T03:27:39;13.93;;;12.52;;
16577;SDS011;8401;52.528;13.340;2023-06-22T03:30:06;14.52;;;12.48;;
16577;SDS011;8401;52.528;13.340;2023-06-22T03:32:35;15.75;;;12.20;;
16577;SDS011;8401;52.528;13.340;2023-06-22T03:35:01;14.40;;;12.27;;
16577;SDS011;8401;52.528;13.340;2023-06-22T03:37:27;11.95;;;10.75;;
16577;SDS011;8401;52.528;13.340;2023-06-22T03:39:53;12.68;;;10.98;;
16577;SDS011;8401;52.528;13.340;2023-06-22T03:42:19;11.70;;;10.32;;
16577;SDS011;8401;52.528;13.340;2023-06-22T03:44:44;13.52;;;10.38;;
16577;SDS011;8401;52.528;13.340;2023-06-22T03:47:10;11.80;;;10.70;;
16577;SDS011;8401;52.528;13.340;2023-06-22T03:49:36;11.10;;;9.82;;
16577;SDS011;8401;52.528;13.340;2023-06-22T03:52:02;11.05;;;9.95;;
16577;SDS011;8401;52.528;13.340;2023-06-22T03:54:28;11.52;;;10.10;;
16577;SDS011;8401;52.528;13.340;2023-06-22T03:56:54;13.00;;;9.75;;
16577;SDS011;8401;52.528;13.340;2023-06-22T03:59:21;12.55;;;9.23;;
16577;SDS011;8401;52.528;13.340;2023-06-22T04:01:47;10.25;;;9.20;;
16577;SDS011;8401;52.528;13.340;2023-06-22T04:04:12;11.70;;;9.98;;
16577;SDS011;8401;52.528;13.340;2023-06-22T04:06:38;10.82;;;9.40;;
16577;SDS011;8401;52.528;13.340;2023-06-22T04:09:05;10.82;;;9.02;;
16577;SDS011;8401;52.528;13.340;2023-06-22T04:11:31;11.18;;;9.75;;
16577;SDS011;8401;52.528;13.340;2023-06-22T04:13:56;11.80;;;9.27;;
16577;SDS011;8401;52.528;13.340;2023-06-22T04:16:22;11.70;;;9.63;;
16577;SDS011;8401;52.528;13.340;2023-06-22T04:18:48;11.10;;;9.43;;
16577;SDS011;8401;52.528;13.340;2023-06-22T04:21:13;12.45;;;9.25;;
16577;SDS011;8401;52.528;13.340;2023-06-22T04:23:39;11.23;;;9.32;;
16577;SDS011;8401;52.528;13.340;2023-06-22T04:26:05;14.38;;;9.93;;
16577;SDS011;8401;52.528;13.340;2023-06-22T04:28:30;10.13;;;8.35;;
16577;SDS011;8401;52.528;13.340;2023-06-22T04:31:00;13.23;;;8.48;;
16577;SDS011;8401;52.528;13.340;2023-06-22T04:33:27;10.88;;;8.30;;
16577;SDS011;8401;52.528;13.340;2023-06-22T04:35:54;10.85;;;8.13;;
16577;SDS011;8401;52.528;13.340;2023-06-22T04:38:22;8.73;;;7.75;;
16577;SDS011;8401;52.528;13.340;2023-06-22T04:40:48;10.18;;;7.93;;
16577;SDS011;8401;52.528;13.340;2023-06-22T04:43:14;8.70;;;7.25;;
16577;SDS011;8401;52.528;13.340;2023-06-22T04:45:40;7.85;;;7.00;;
16577;SDS011;8401;52.528;13.340;2023-06-22T05:01:21;7.88;;;6.95;;
16577;SDS011;8401;52.528;13.340;2023-06-22T05:03:47;7.20;;;6.60;;
16577;SDS011;8401;52.528;13.340;2023-06-22T05:06:13;7.28;;;5.82;;
16577;SDS011;8401;52.528;13.340;2023-06-22T05:08:39;7.95;;;5.45;;
16577;SDS011;8401;52.528;13.340;2023-06-22T05:11:05;6.53;;;5.15;;
16577;SDS011;8401;52.528;13.340;2023-06-22T05:13:31;8.25;;;5.50;;
16577;SDS011;8401;52.528;13.340;2023-06-22T05:15:57;8.35;;;4.90;;
16577;SDS011;8401;52.528;13.340;2023-06-22T05:18:29;6.75;;;4.95;;
16577;SDS011;8401;52.528;13.340;2023-06-22T05:20:55;5.78;;;4.18;;
16577;SDS011;8401;52.528;13.340;2023-06-22T05:23:22;6.28;;;4.10;;
16577;SDS011;8401;52.528;13.340;2023-06-22T05:25:47;5.00;;;4.50;;
16577;SDS011;8401;52.528;13.340;2023-06-22T05:28:13;5.22;;;3.90;;
16577;SDS011;8401;52.528;13.340;2023-06-22T05:30:38;5.45;;;3.95;;
16577;SDS011;8401;52.528;13.340;2023-06-22T05:33:04;5.38;;;3.53;;
16577;SDS011;8401;52.528;13.340;2023-06-22T05:35:30;5.05;;;3.90;;
16577;SDS011;8401;52.528;13.340;2023-06-22T05:37:56;6.53;;;4.10;;
16577;SDS011;8401;52.528;13.340;2023-06-22T05:40:21;3.95;;;3.58;;
16577;SDS011;8401;52.528;13.340;2023-06-22T05:42:47;5.57;;;4.00;;
16577;SDS011;8401;52.528;13.340;2023-06-22T05:45:13;6.13;;;3.63;;
16577;SDS011;8401;52.528;13.340;2023-06-22T05:47:38;4.80;;;3.83;;
16577;SDS011;8401;52.528;13.340;2023-06-22T05:50:04;5.20;;;3.58;;
16577;SDS011;8401;52.528;13.340;2023-06-22T05:52:33;5.30;;;3.50;;
16577;SDS011;8401;52.528;13.340;2023-06-22T05:54:59;7.32;;;3.60;;
16577;SDS011;8401;52.528;13.340;2023-06-22T05:57:24;4.40;;;3.85;;
16577;SDS011;8401;52.528;13.340;2023-06-22T05:59:50;4.80;;;3.88;;
16577;SDS011;8401;52.528;13.340;2023-06-22T06:02:16;5.03;;;3.80;;
16577;SDS011;8401;52.528;13.340;2023-06-22T06:04:42;5.28;;;4.18;;
16577;SDS011;8401;52.528;13.340;2023-06-22T06:07:08;4.65;;;3.92;;
16577;SDS011;8401;52.528;13.340;2023-06-22T06:09:33;5.88;;;3.75;;
16577;SDS011;8401;52.528;13.340;2023-06-22T06:11:59;6.13;;;4.20;;
16577;SDS011;8401;52.528;13.340;2023-06-22T06:14:24;9.50;;;4.45;;
16577;SDS011;8401;52.528;13.340;2023-06-22T06:16:50;5.72;;;5.00;;
16577;SDS011;8401;52.528;13.340;2023-06-22T06:19:16;7.47;;;4.88;;
16577;SDS011;8401;52.528;13.340;2023-06-22T06:21:41;7.35;;;5.10;;
16577;SDS011;8401;52.528;13.340;2023-06-22T06:24:07;7.22;;;4.43;;
16577;SDS011;8401;52.528;13.340;2023-06-22T06:26:33;7.25;;;4.32;;
16577;SDS011;8401;52.528;13.340;2023-06-22T06:29:00;7.05;;;4.65;;
16577;SDS011;8401;52.528;13.340;2023-06-22T06:31:27;6.57;;;4.63;;
16577;SDS011;8401;52.528;13.340;2023-06-22T06:33:53;6.72;;;5.15;;
16577;SDS011;8401;52.528;13.340;2023-06-22T06:36:20;5.63;;;4.38;;
16577;SDS011;8401;52.528;13.340;2023-06-22T06:38:45;7.10;;;4.68;;
16577;SDS011;8401;52.528;13.340;2023-06-22T06:41:14;4.70;;;4.22;;
16577;SDS011;8401;52.528;13.340;2023-06-22T06:43:41;4.90;;;4.13;;
16577;SDS011;8401;52.528;13.340;2023-06-22T06:46:08;6.40;;;4.40;;
16577;SDS011;8401;52.528;13.340;2023-06-22T06:48:34;6.68;;;4.30;;
16577;SDS011;8401;52.528;13.340;2023-06-22T06:51:00;8.38;;;4.68;;
16577;SDS011;8401;52.528;13.340;2023-06-22T06:53:26;5.93;;;4.70;;
16577;SDS011;8401;52.528;13.340;2023-06-22T06:55:52;6.07;;;4.00;;
16577;SDS011;8401;52.528;13.340;2023-06-22T06:58:17;4.93;;;3.90;;
16577;SDS011;8401;52.528;13.340;2023-06-22T07:00:43;4.43;;;4.03;;
16577;SDS011;8401;52.528;13.340;2023-06-22T07:03:09;5.80;;;3.72;;
16577;SDS011;8401;52.528;13.340;2023-06-22T07:05:34;4.63;;;3.40;;
16577;SDS011;8401;52.528;13.340;2023-06-22T07:08:01;4.03;;;3.10;;
16577;SDS011;8401;52.528;13.340;2023-06-22T07:10:27;4.68;;;3.70;;
16577;SDS011;8401;52.528;13.340;2023-06-22T07:12:53;5.65;;;3.55;;
16577;SDS011;8401;52.528;13.340;2023-06-22T07:15:18;6.43;;;3.78;;
16577;SDS011;8401;52.528;13.340;2023-06-22T07:17:44;4.07;;;3.67;;
16577;SDS011;8401;52.528;13.340;2023-06-22T07:20:10;6.28;;;3.38;;
16577;SDS011;8401;52.528;13.340;2023-06-22T07:22:40;5.88;;;3.90;;
16577;SDS011;8401;52.528;13.340;2023-06-22T07:25:09;4.10;;;3.28;;
16577;SDS011;8401;52.528;13.340;2023-06-22T07:27:38;3.92;;;3.10;;
16577;SDS011;8401;52.528;13.340;2023-06-22T07:30:08;9.23;;;3.47;;
16577;SDS011;8401;52.528;13.340;2023-06-22T07:32:34;3.30;;;2.88;;
16577;SDS011;8401;52.528;13.340;2023-06-22T07:35:00;5.30;;;2.80;;
16577;SDS011;8401;52.528;13.340;2023-06-22T07:37:27;5.00;;;3.47;;
16577;SDS011;8401;52.528;13.340;2023-06-22T07:39:54;3.78;;;3.00;;
16577;SDS011;8401;52.528;13.340;2023-06-22T07:42:23;4.57;;;3.05;;
16577;SDS011;8401;52.528;13.340;2023-06-22T07:44:50;4.35;;;2.85;;
16577;SDS011;8401;52.528;13.340;2023-06-22T07:47:16;3.00;;;2.70;;
16577;SDS011;8401;52.528;13.340;2023-06-22T07:49:44;3.70;;;2.88;;
16577;SDS011;8401;52.528;13.340;2023-06-22T07:52:10;3.00;;;2.45;;
16577;SDS011;8401;52.528;13.340;2023-06-22T07:54:36;6.43;;;2.80;;
16577;SDS011;8401;52.528;13.340;2023-06-22T07:57:01;5.57;;;2.78;;
16577;SDS011;8401;52.528;13.340;2023-06-22T07:59:27;5.65;;;2.75;;
16577;SDS011;8401;52.528;13.340;2023-06-22T08:01:54;4.20;;;2.72;;
16577;SDS011;8401;52.528;13.340;2023-06-22T08:04:20;3.75;;;2.65;;
16577;SDS011;8401;52.528;13.340;2023-06-22T08:06:46;3.05;;;2.75;;
16577;SDS011;8401;52.528;13.340;2023-06-22T08:09:12;4.15;;;2.40;;
16577;SDS011;8401;52.528;13.340;2023-06-22T08:11:37;2.95;;;2.45;;
16577;SDS011;8401;52.528;13.340;2023-06-22T08:14:03;3.08;;;2.78;;
16577;SDS011;8401;52.528;13.340;2023-06-22T08:16:29;3.55;;;2.67;;
16577;SDS011;8401;52.528;13.340;2023-06-22T08:18:54;2.85;;;2.58;;
16577;SDS011;8401;52.528;13.340;2023-06-22T08:21:20;3.65;;;3.05;;
16577;SDS011;8401;52.528;13.340;2023-06-22T08:23:46;4.28;;;2.88;;
16577;SDS011;8401;52.528;13.340;2023-06-22T08:26:11;3.13;;;2.80;;
16577;SDS011;8401;52.528;13.340;2023-06-22T08:28:37;4.28;;;3.05;;
16577;SDS011;8401;52.528;13.340;2023-06-22T08:31:02;7.72;;;2.90;;
16577;SDS011;8401;52.528;13.340;2023-06-22T08:33:29;5.57;;;2.72;;
16577;SDS011;8401;52.528;13.340;2023-06-22T08:35:55;4.38;;;2.90;;
16577;SDS011;8401;52.528;13.340;2023-06-22T08:38:21;3.42;;;2.80;;
16577;SDS011;8401;52.528;13.340;2023-06-22T08:40:47;4.65;;;2.75;;
16577;SDS011;8401;52.528;13.340;2023-06-22T08:43:13;5.18;;;3.10;;
16577;SDS011;8401;52.528;13.340;2023-06-22T08:45:39;3.33;;;2.33;;
16577;SDS011;8401;52.528;13.340;2023-06-22T08:48:05;4.10;;;2.80;;
16577;SDS011;8401;52.528;13.340;2023-06-22T08:50:30;5.35;;;2.72;;
16577;SDS011;8401;52.528;13.340;2023-06-22T08:52:56;3.88;;;2.83;;
16577;SDS011;8401;52.528;13.340;2023-06-22T08:55:22;3.88;;;3.10;;
16577;SDS011;8401;52.528;13.340;2023-06-22T08:57:47;2.85;;;2.47;;
16577;SDS011;8401;52.528;13.340;2023-06-22T09:00:13;3.90;;;3.03;;
16577;SDS011;8401;52.528;13.340;2023-06-22T09:02:45;3.78;;;2.70;;
16577;SDS011;8401;52.528;13.340;2023-06-22T09:05:12;5.10;;;2.90;;
16577;SDS011;8401;52.528;13.340;2023-06-22T09:07:37;5.55;;;2.63;;
16577;SDS011;8401;52.528;13.340;2023-06-22T09:10:03;3.70;;;3.00;;
16577;SDS011;8401;52.528;13.340;2023-06-22T09:12:30;4.80;;;4.25;;
16577;SDS011;8401;52.528;13.340;2023-06-22T09:14:58;9.45;;;7.00;;
16577;SDS011;8401;52.528;13.340;2023-06-22T09:17:27;5.40;;;3.65;;
16577;SDS011;8401;52.528;13.340;2023-06-22T09:19:53;6.15;;;3.80;;
16577;SDS011;8401;52.528;13.340;2023-06-22T09:22:19;7.72;;;3.67;;
16577;SDS011;8401;52.528;13.340;2023-06-22T09:24:45;5.95;;;4.30;;
16577;SDS011;8401;52.528;13.340;2023-06-22T09:27:10;3.80;;;3.40;;
16577;SDS011;8401;52.528;13.340;2023-06-22T09:29:36;5.05;;;3.25;;
16577;SDS011;8401;52.528;13.340;2023-06-22T09:32:02;3.75;;;3.08;;
16577;SDS011;8401;52.528;13.340;2023-06-22T09:34:27;3.85;;;3.50;;
16577;SDS011;8401;52.528;13.340;2023-06-22T09:36:53;4.65;;;3.70;;
16577;SDS011;8401;52.528;13.340;2023-06-22T09:39:20;4.10;;;3.78;;
16577;SDS011;8401;52.528;13.340;2023-06-22T09:41:45;5.53;;;3.10;;
16577;SDS011;8401;52.528;13.340;2023-06-22T09:44:11;3.15;;;2.85;;
16577;SDS011;8401;52.528;13.340;2023-06-22T09:46:37;9.90;;;6.07;;
16577;SDS011;8401;52.528;13.340;2023-06-22T09:49:02;4.75;;;4.25;;
16577;SDS011;8401;52.528;13.340;2023-06-22T09:51:28;4.78;;;3.33;;
16577;SDS011;8401;52.528;13.340;2023-06-22T09:53:54;5.13;;;3.30;;
16577;SDS011;8401;52.528;13.340;2023-06-22T09:56:20;3.28;;;3.03;;
16577;SDS011;8401;52.528;13.340;2023-06-22T09:58:46;3.38;;;3.08;;
16577;SDS011;8401;52.528;13.340;2023-06-22T10:01:12;5.20;;;2.97;;
16577;SDS011;8401;52.528;13.340;2023-06-22T10:03:40;6.55;;;4.13;;
16577;SDS011;8401;52.528;13.340;2023-06-22T10:06:06;4.38;;;3.42;;
16577;SDS011;8401;52.528;13.340;2023-06-22T10:08:32;3.92;;;3.40;;
16577;SDS011;8401;52.528;13.340;2023-06-22T10:10:58;5.25;;;3.80;;
16577;SDS011;8401;52.528;13.340;2023-06-22T10:13:23;5.00;;;3.30;;
16577;SDS011;8401;52.528;13.340;2023-06-22T10:15:49;6.07;;;3.90;;
16577;SDS011;8401;52.528;13.340;2023-06-22T10:18:17;4.80;;;3.47;;
16577;SDS011;8401;52.528;13.340;2023-06-22T10:20:43;4.63;;;3.60;;
16577;SDS011;8401;52.528;13.340;2023-06-22T10:23:09;4.13;;;3.50;;
16577;SDS011;8401;52.528;13.340;2023-06-22T10:25:34;6.13;;;3.55;;
16577;SDS011;8401;52.528;13.340;2023-06-22T10:28:00;5.82;;;4.10;;
16577;SDS011;8401;52.528;13.340;2023-06-22T10:30:26;5.57;;;4.13;;
16577;SDS011;8401;52.528;13.340;2023-06-22T10:32:51;4.85;;;4.20;;
16577;SDS011;8401;52.528;13.340;2023-06-22T10:35:17;4.30;;;3.90;;
16577;SDS011;8401;52.528;13.340;2023-06-22T10:37:43;4.63;;;4.13;;
16577;SDS011;8401;52.528;13.340;2023-06-22T10:40:10;4.60;;;3.60;;
16577;SDS011;8401;52.528;13.340;2023-06-22T10:42:37;4.38;;;3.95;;
16577;SDS011;8401;52.528;13.340;2023-06-22T10:45:03;4.43;;;3.92;;
16577;SDS011;8401;52.528;13.340;2023-06-22T10:47:28;4.30;;;3.90;;
16577;SDS011;8401;52.528;13.340;2023-06-22T10:49:54;5.15;;;4.15;;
16577;SDS011;8401;52.528;13.340;2023-06-22T10:52:20;6.97;;;5.55;;
16577;SDS011;8401;52.528;13.340;2023-06-22T10:54:45;5.65;;;5.13;;
16577;SDS011;8401;52.528;13.340;2023-06-22T10:57:11;5.88;;;4.55;;
16577;SDS011;8401;52.528;13.340;2023-06-22T10:59:37;5.75;;;4.57;;
16577;SDS011;8401;52.528;13.340;2023-06-22T11:02:02;5.72;;;5.22;;
16577;SDS011;8401;52.528;13.340;2023-06-22T11:04:28;5.88;;;5.38;;
16577;SDS011;8401;52.528;13.340;2023-06-22T11:06:54;4.63;;;4.05;;
16577;SDS011;8401;52.528;13.340;2023-06-22T11:09:21;5.28;;;3.97;;
16577;SDS011;8401;52.528;13.340;2023-06-22T11:11:47;5.63;;;4.63;;
16577;SDS011;8401;52.528;13.340;2023-06-22T11:14:13;4.47;;;4.05;;
16577;SDS011;8401;52.528;13.340;2023-06-22T11:16:39;5.63;;;5.10;;
16577;SDS011;8401;52.528;13.340;2023-06-22T11:19:05;4.20;;;3.83;;
16577;SDS011;8401;52.528;13.340;2023-06-22T11:21:31;6.50;;;3.95;;
16577;SDS011;8401;52.528;13.340;2023-06-22T11:23:57;4.88;;;4.40;;
16577;SDS011;8401;52.528;13.340;2023-06-22T11:26:24;5.82;;;5.22;;
16577;SDS011;8401;52.528;13.340;2023-06-22T11:28:52;5.45;;;4.95;;
16577;SDS011;8401;52.528;13.340;2023-06-22T11:31:18;5.60;;;5.03;;
16577;SDS011;8401;52.528;13.340;2023-06-22T11:33:43;4.97;;;4.28;;
16577;SDS011;8401;52.528;13.340;2023-06-22T11:36:11;6.55;;;4.30;;
16577;SDS011;8401;52.528;13.340;2023-06-22T11:38:36;5.82;;;4.55;;
16577;SDS011;8401;52.528;13.340;2023-06-22T11:41:05;4.97;;;4.38;;
16577;SDS011;8401;52.528;13.340;2023-06-22T11:43:31;5.00;;;4.50;;
16577;SDS011;8401;52.528;13.340;2023-06-22T11:45:57;4.85;;;4.43;;
16577;SDS011;8401;52.528;13.340;2023-06-22T11:48:26;4.95;;;4.32;;
16577;SDS011;8401;52.528;13.340;2023-06-22T11:50:51;4.25;;;3.85;;
16577;SDS011;8401;52.528;13.340;2023-06-22T11:53:17;5.07;;;4.57;;
16577;SDS011;8401;52.528;13.340;2023-06-22T11:55:43;5.82;;;5.32;;
16577;SDS011;8401;52.528;13.340;2023-06-22T11:58:09;5.68;;;5.18;;
16577;SDS011;8401;52.528;13.340;2023-06-22T12:00:36;4.90;;;4.40;;
16577;SDS011;8401;52.528;13.340;2023-06-22T12:03:02;4.35;;;3.95;;
16577;SDS011;8401;52.528;13.340;2023-06-22T12:05:28;6.32;;;4.30;;
16577;SDS011;8401;52.528;13.340;2023-06-22T12:07:54;4.82;;;4.43;;
16577;SDS011;8401;52.528;13.340;2023-06-22T12:10:20;4.45;;;4.05;;
16577;SDS011;8401;52.528;13.340;2023-06-22T12:12:50;6.43;;;4.45;;
16577;SDS011;8401;52.528;13.340;2023-06-22T12:15:15;4.82;;;4.40;;
16577;SDS011;8401;52.528;13.340;2023-06-22T12:17:41;4.75;;;4.35;;
16577;SDS011;8401;52.528;13.340;2023-06-22T12:20:07;4.70;;;4.30;;
16577;SDS011;8401;52.528;13.340;2023-06-22T12:22:33;5.50;;;4.10;;
16577;SDS011;8401;52.528;13.340;2023-06-22T12:24:59;5.55;;;4.30;;
16577;SDS011;8401;52.528;13.340;2023-06-22T12:27:25;5.43;;;4.38;;
16577;SDS011;8401;52.528;13.340;2023-06-22T12:29:51;4.50;;;4.10;;
16577;SDS011;8401;52.528;13.340;2023-06-22T12:32:17;5.15;;;4.65;;
16577;SDS011;8401;52.528;13.340;2023-06-22T12:34:43;7.20;;;5.05;;
16577;SDS011;8401;52.528;13.340;2023-06-22T12:37:09;4.85;;;4.38;;
16577;SDS011;8401;52.528;13.340;2023-06-22T12:39:35;5.43;;;4.13;;
16577;SDS011;8401;52.528;13.340;2023-06-22T12:42:01;4.65;;;4.20;;
16577;SDS011;8401;52.528;13.340;2023-06-22T12:44:27;5.20;;;3.90;;
16577;SDS011;8401;52.528;13.340;2023-06-22T12:46:53;4.50;;;4.10;;
16577;SDS011;8401;52.528;13.340;2023-06-22T12:49:19;4.97;;;4.30;;
16577;SDS011;8401;52.528;13.340;2023-06-22T12:51:44;6.55;;;3.90;;
16577;SDS011;8401;52.528;13.340;2023-06-22T12:54:10;4.70;;;4.30;;
16577;SDS011;8401;52.528;13.340;2023-06-22T12:56:36;4.22;;;3.83;;
16577;SDS011;8401;52.528;13.340;2023-06-22T12:59:03;6.90;;;4.35;;
16577;SDS011;8401;52.528;13.340;2023-06-22T13:01:29;4.90;;;4.10;;
16577;SDS011;8401;52.528;13.340;2023-06-22T13:03:56;4.43;;;4.03;;
16577;SDS011;8401;52.528;13.340;2023-06-22T13:06:25;4.72;;;4.32;;
16577;SDS011;8401;52.528;13.340;2023-06-22T13:08:51;4.05;;;3.58;;
16577;SDS011;8401;52.528;13.340;2023-06-22T13:11:17;5.72;;;4.30;;
16577;SDS011;8401;52.528;13.340;2023-06-22T13:13:43;8.13;;;4.47;;
16577;SDS011;8401;52.528;13.340;2023-06-22T13:16:10;4.72;;;4.20;;
16577;SDS011;8401;52.528;13.340;2023-06-22T13:18:35;4.03;;;3.70;;
16577;SDS011;8401;52.528;13.340;2023-06-22T13:21:01;7.15;;;4.55;;
16577;SDS011;8401;52.528;13.340;2023-06-22T13:23:27;4.85;;;4.20;;
16577;SDS011;8401;52.528;13.340;2023-06-22T13:25:53;5.32;;;4.43;;
16577;SDS011;8401;52.528;13.340;2023-06-22T13:28:19;4.47;;;4.07;;
16577;SDS011;8401;52.528;13.340;2023-06-22T13:30:45;6.00;;;4.15;;
16577;SDS011;8401;52.528;13.340;2023-06-22T13:33:12;4.93;;;4.43;;
16577;SDS011;8401;52.528;13.340;2023-06-22T13:35:38;6.38;;;4.43;;
16577;SDS011;8401;52.528;13.340;2023-06-22T13:38:04;5.95;;;4.38;;
16577;SDS011;8401;52.528;13.340;2023-06-22T13:40:30;6.63;;;4.55;;
16577;SDS011;8401;52.528;13.340;2023-06-22T13:42:56;8.10;;;4.85;;
16577;SDS011;8401;52.528;13.340;2023-06-22T13:45:22;4.93;;;4.43;;
16577;SDS011;8401;52.528;13.340;2023-06-22T13:47:47;4.50;;;4.10;;
16577;SDS011;8401;52.528;13.340;2023-06-22T13:50:13;5.78;;;4.47;;
16577;SDS011;8401;52.528;13.340;2023-06-22T13:52:39;6.05;;;4.35;;
16577;SDS011;8401;52.528;13.340;2023-06-22T13:55:05;4.93;;;4.53;;
16577;SDS011;8401;52.528;13.340;2023-06-22T13:57:32;4.70;;;4.30;;
16577;SDS011;8401;52.528;13.340;2023-06-22T13:59:58;5.35;;;4.70;;
16577;SDS011;8401;52.528;13.340;2023-06-22T14:02:25;4.25;;;3.95;;
16577;SDS011;8401;52.528;13.340;2023-06-22T14:04:51;5.25;;;4.65;;
16577;SDS011;8401;52.528;13.340;2023-06-22T14:07:17;5.10;;;4.60;;
16577;SDS011;8401;52.528;13.340;2023-06-22T14:09:44;5.55;;;4.43;;
16577;SDS011;8401;52.528;13.340;2023-06-22T14:12:10;5.07;;;4.57;;
16577;SDS011;8401;52.528;13.340;2023-06-22T14:14:36;5.18;;;4.70;;
16577;SDS011;8401;52.528;13.340;2023-06-22T14:17:02;5.55;;;4.78;;
16577;SDS011;8401;52.528;13.340;2023-06-22T14:19:29;5.20;;;4.70;;
16577;SDS011;8401;52.528;13.340;2023-06-22T14:21:54;4.50;;;4.05;;
16577;SDS011;8401;52.528;13.340;2023-06-22T14:24:21;4.85;;;4.40;;
16577;SDS011;8401;52.528;13.340;2023-06-22T14:26:47;4.95;;;4.47;;
16577;SDS011;8401;52.528;13.340;2023-06-22T14:29:13;4.97;;;4.38;;
16577;SDS011;8401;52.528;13.340;2023-06-22T14:31:39;5.10;;;4.38;;
16577;SDS011;8401;52.528;13.340;2023-06-22T14:34:05;5.72;;;4.57;;
16577;SDS011;8401;52.528;13.340;2023-06-22T14:36:31;7.45;;;4.90;;
16577;SDS011;8401;52.528;13.340;2023-06-22T14:38:57;5.25;;;4.75;;
16577;SDS011;8401;52.528;13.340;2023-06-22T14:41:22;6.85;;;5.20;;
16577;SDS011;8401;52.528;13.340;2023-06-22T14:43:49;4.72;;;4.32;;
16577;SDS011;8401;52.528;13.340;2023-06-22T14:46:15;5.40;;;4.90;;
16577;SDS011;8401;52.528;13.340;2023-06-22T14:48:42;5.30;;;4.78;;
16577;SDS011;8401;52.528;13.340;2023-06-22T14:51:08;4.40;;;4.00;;
16577;SDS011;8401;52.528;13.340;2023-06-22T14:53:34;5.05;;;4.65;;
16577;SDS011;8401;52.528;13.340;2023-06-22T14:56:00;4.75;;;4.28;;
16577;SDS011;8401;52.528;13.340;2023-06-22T14:58:27;7.30;;;5.00;;